Time;durP1;ratioP1;P1;durP2;ratioP2;P2;SDS_P1;SDS_P2;PMS_P1;PMS_P2;Temp;Humidity;BMP_temperature;BMP_pressure;BME280_temperature;BME280_humidity;BME280_pressure;Samples;Min_cycle;Max_cycle;Signal;HPM_P1;HPM_P2
2023/07/02 00:00:39;;;;;;;20.70;8.07;;;16.60;99.90;;;;;;5019012;28;20123;-75
2023/07/02 00:03:04;;;;;;;17.83;8.63;;;16.60;99.90;;;;;;5036476;28;20046;-75
2023/07/02 00:05:30;;;;;;;19.87;8.50;;;16.60;99.90;;;;;;5018830;28;20046;-76
2023/07/02 00:07:56;;;;;;;20.50;8.70;;;16.60;99.90;;;;;;5036300;28;20149;-76
2023/07/02 00:10:22;;;;;;;21.13;8.20;;;16.50;99.90;;;;;;5034774;28;20044;-76
2023/07/02 00:12:47;;;;;;;21.47;8.13;;;16.50;99.90;;;;;;5018959;28;20132;-76
2023/07/02 00:15:13;;;;;;;25.33;9.00;;;16.50;99.90;;;;;;5018539;28;20144;-76
2023/07/02 00:17:39;;;;;;;24.27;8.30;;;16.50;99.90;;;;;;5035228;28;20057;-76
2023/07/02 00:20:13;;;;;;;20.13;8.20;;;16.40;99.90;;;;;;5018963;28;20057;-76
2023/07/02 00:22:41;;;;;;;22.27;8.70;;;16.40;99.90;;;;;;5034655;28;20107;-76
2023/07/02 00:25:07;;;;;;;19.87;7.90;;;16.40;99.90;;;;;;5036213;28;20477;-76
2023/07/02 00:27:33;;;;;;;19.07;8.00;;;16.30;99.90;;;;;;5017972;28;20132;-75
2023/07/02 00:29:59;;;;;;;21.30;8.30;;;16.30;99.90;;;;;;5034835;28;20124;-75
2023/07/02 00:32:25;;;;;;;18.47;8.53;;;16.30;99.90;;;;;;5018203;28;20049;-75
2023/07/02 00:34:51;;;;;;;17.07;7.97;;;16.30;99.90;;;;;;5018454;28;20547;-75
2023/07/02 00:37:16;;;;;;;20.27;8.20;;;16.20;99.90;;;;;;5018149;28;20045;-78
2023/07/02 00:39:42;;;;;;;21.33;8.30;;;16.20;99.90;;;;;;5018479;28;20042;-75
2023/07/02 00:42:08;;;;;;;19.37;7.97;;;16.20;99.90;;;;;;5034354;28;20044;-75
2023/07/02 00:44:40;;;;;;;20.60;8.57;;;16.20;99.90;;;;;;5017895;28;20056;-75
2023/07/02 00:47:08;;;;;;;22.17;8.57;;;16.10;99.90;;;;;;5018908;28;20469;-75
2023/07/02 00:49:34;;;;;;;23.70;9.13;;;16.10;99.90;;;;;;5017992;28;20049;-76
2023/07/02 00:52:00;;;;;;;19.20;8.87;;;16.10;99.90;;;;;;5018010;28;20132;-75
2023/07/02 00:54:28;;;;;;;21.40;8.77;;;16.10;99.90;;;;;;5034455;28;20053;-76
2023/07/02 00:56:54;;;;;;;22.10;7.90;;;16.00;99.90;;;;;;5034543;28;20497;-75
2023/07/02 00:59:20;;;;;;;25.97;9.10;;;16.00;99.90;;;;;;5017616;28;20053;-78
2023/07/02 01:01:49;;;;;;;21.00;8.60;;;15.90;99.90;;;;;;5035330;28;20154;-75
2023/07/02 01:04:17;;;;;;;22.90;8.53;;;15.90;99.90;;;;;;5034006;28;20049;-75
2023/07/02 01:06:43;;;;;;;22.57;9.03;;;15.90;99.90;;;;;;5033774;28;20045;-75
2023/07/02 01:09:10;;;;;;;30.00;9.70;;;15.90;99.90;;;;;;5017723;28;20057;-75
2023/07/02 01:11:51;;;;;;;24.50;9.70;;;15.90;99.90;;;;;;5034026;28;20086;-75
2023/07/02 01:14:26;;;;;;;21.03;8.43;;;15.90;99.90;;;;;;5033960;28;20045;-75
2023/07/02 01:16:54;;;;;;;22.80;8.80;;;15.90;99.90;;;;;;5017314;28;20053;-76
2023/07/02 01:19:30;;;;;;;23.33;9.03;;;15.80;99.90;;;;;;5034296;28;20385;-75
2023/07/02 01:21:56;;;;;;;25.47;9.13;;;15.80;99.90;;;;;;5033996;28;20056;-75
2023/07/02 01:24:22;;;;;;;25.10;8.83;;;15.80;99.90;;;;;;5034008;28;20433;-78
2023/07/02 01:26:48;;;;;;;26.90;9.80;;;15.70;99.90;;;;;;5017245;28;20053;-75
2023/07/02 01:29:15;;;;;;;21.60;9.17;;;15.70;99.90;;;;;;5033863;28;20054;-76
2023/07/02 01:31:41;;;;;;;23.33;8.47;;;15.70;99.90;;;;;;5033392;28;20059;-74
2023/07/02 01:34:08;;;;;;;21.00;8.47;;;15.60;99.90;;;;;;5033741;28;20143;-75
2023/07/02 01:36:33;;;;;;;25.97;9.30;;;15.60;99.90;;;;;;5033588;28;20053;-76
2023/07/02 01:38:59;;;;;;;22.30;8.30;;;15.50;99.90;;;;;;5033740;28;20191;-75
2023/07/02 01:41:25;;;;;;;26.27;9.23;;;15.50;99.90;;;;;;5000235;28;20103;-77
2023/07/02 01:43:50;;;;;;;21.63;9.33;;;15.50;99.90;;;;;;5016748;28;20045;-74
2023/07/02 01:46:16;;;;;;;26.37;10.17;;;15.50;99.90;;;;;;5033292;28;20053;-75
2023/07/02 01:48:42;;;;;;;27.97;10.13;;;15.50;99.90;;;;;;5016831;28;20474;-75
2023/07/02 01:51:08;;;;;;;23.60;9.53;;;15.40;99.90;;;;;;5017122;28;20076;-75
2023/07/02 01:53:33;;;;;;;25.90;8.87;;;15.40;99.90;;;;;;5016796;28;20447;-75
2023/07/02 01:55:59;;;;;;;20.03;9.30;;;15.40;99.90;;;;;;5033357;28;20512;-75
2023/07/02 01:58:25;;;;;;;28.13;10.07;;;15.40;99.90;;;;;;5016875;28;20064;-75
2023/07/02 02:00:51;;;;;;;21.13;8.87;;;15.30;99.90;;;;;;5034199;28;20038;-75
2023/07/02 02:03:18;;;;;;;24.03;9.13;;;15.30;99.90;;;;;;5016622;28;20083;-75
2023/07/02 02:05:43;;;;;;;25.10;9.63;;;15.30;99.90;;;;;;5033096;28;20056;-75
2023/07/02 02:08:09;;;;;;;22.03;8.50;;;15.30;99.90;;;;;;5033001;28;20131;-75
2023/07/02 02:10:35;;;;;;;24.00;8.73;;;15.30;99.90;;;;;;5032909;28;20045;-76
2023/07/02 02:13:00;;;;;;;25.00;10.07;;;15.30;99.90;;;;;;5033997;28;20053;-75
2023/07/02 02:15:26;;;;;;;25.93;9.87;;;15.20;99.90;;;;;;5032257;28;20521;-75
2023/07/02 02:17:52;;;;;;;24.73;8.30;;;15.20;99.90;;;;;;5032691;28;20069;-75
2023/07/02 02:20:18;;;;;;;25.40;9.37;;;15.20;99.90;;;;;;5033948;28;20429;-75
2023/07/02 02:22:44;;;;;;;24.00;8.63;;;15.10;99.90;;;;;;5015739;28;20132;-76
2023/07/02 02:25:10;;;;;;;26.67;9.67;;;15.10;99.90;;;;;;5000026;28;20133;-75
2023/07/02 02:27:35;;;;;;;18.93;8.50;;;15.10;99.90;;;;;;5032151;28;20045;-75
2023/07/02 02:30:01;;;;;;;29.40;9.97;;;15.10;99.90;;;;;;5032373;28;20088;-75
2023/07/02 02:32:27;;;;;;;26.57;8.57;;;15.10;99.90;;;;;;5016132;28;20128;-76
2023/07/02 02:34:52;;;;;;;21.80;8.80;;;15.00;99.90;;;;;;5015948;28;20529;-76
2023/07/02 02:37:21;;;;;;;20.97;8.70;;;15.00;99.90;;;;;;4999907;28;20049;-76
2023/07/02 02:39:47;;;;;;;25.43;9.37;;;15.00;99.90;;;;;;5015886;28;20099;-76
2023/07/02 02:42:13;;;;;;;21.90;9.17;;;15.00;99.90;;;;;;5016077;28;20049;-76
2023/07/02 02:44:39;;;;;;;22.67;8.73;;;14.90;99.90;;;;;;4999279;28;20394;-75
2023/07/02 02:47:05;;;;;;;24.40;9.67;;;14.90;99.90;;;;;;4983305;28;20046;-76
2023/07/02 02:49:31;;;;;;;24.43;8.80;;;14.90;99.90;;;;;;5016140;28;20045;-76
2023/07/02 02:51:57;;;;;;;22.17;9.73;;;14.90;99.90;;;;;;5032172;28;20049;-76
2023/07/02 02:54:22;;;;;;;27.67;10.10;;;14.90;99.90;;;;;;5032303;28;20499;-76
2023/07/02 02:56:48;;;;;;;23.93;9.30;;;14.90;99.90;;;;;;5031998;28;20060;-76
2023/07/02 02:59:14;;;;;;;26.10;9.33;;;14.90;99.90;;;;;;5031892;28;20132;-76
2023/07/02 03:01:40;;;;;;;24.90;10.30;;;14.90;99.90;;;;;;4998924;28;20049;-76
2023/07/02 03:04:08;;;;;;;22.40;9.07;;;14.90;99.90;;;;;;5032324;28;20370;-75
2023/07/02 03:06:34;;;;;;;25.47;9.37;;;14.80;99.90;;;;;;5015810;28;20049;-78
2023/07/02 03:08:59;;;;;;;21.80;9.00;;;14.90;99.90;;;;;;5031964;28;20481;-75
2023/07/02 03:11:25;;;;;;;21.33;8.47;;;14.80;99.90;;;;;;5031965;28;20132;-75
2023/07/02 03:13:51;;;;;;;21.53;8.07;;;14.80;99.90;;;;;;5015244;28;20398;-75
2023/07/02 03:16:16;;;;;;;24.73;9.67;;;14.80;99.90;;;;;;4998708;28;20049;-75
2023/07/02 03:18:42;;;;;;;21.10;7.67;;;14.80;99.90;;;;;;5015172;28;20156;-75
2023/07/02 03:21:09;;;;;;;28.37;9.57;;;14.80;99.90;;;;;;4999135;28;20064;-75
2023/07/02 03:23:35;;;;;;;23.47;9.20;;;14.80;99.90;;;;;;5032603;28;20053;-78
2023/07/02 03:26:01;;;;;;;25.23;9.00;;;14.80;99.90;;;;;;5031089;28;20052;-75
2023/07/02 03:28:26;;;;;;;24.83;9.00;;;14.80;99.90;;;;;;5031534;28;20045;-75
2023/07/02 03:30:52;;;;;;;20.43;8.20;;;14.80;99.90;;;;;;5031367;28;20043;-75
2023/07/02 03:33:18;;;;;;;25.83;9.57;;;14.80;99.90;;;;;;5014213;28;20481;-75
2023/07/02 03:35:43;;;;;;;18.60;7.40;;;14.80;99.90;;;;;;5014836;28;20068;-75
2023/07/02 03:38:09;;;;;;;22.67;8.40;;;14.80;99.90;;;;;;4998973;28;20060;-75
2023/07/02 03:40:35;;;;;;;22.00;8.40;;;14.90;99.90;;;;;;5015010;28;20048;-75
2023/07/02 03:43:01;;;;;;;24.90;9.13;;;14.90;99.90;;;;;;5014524;28;20049;-75
2023/07/02 03:45:26;;;;;;;24.10;8.03;;;14.90;99.90;;;;;;5032597;28;20069;-75
2023/07/02 03:47:52;;;;;;;22.57;8.20;;;14.90;99.90;;;;;;5014677;28;20396;-74
2023/07/02 03:50:18;;;;;;;23.00;8.53;;;15.00;99.90;;;;;;5015058;28;20049;-75
2023/07/02 03:52:44;;;;;;;19.27;7.83;;;15.00;99.90;;;;;;5031220;28;20045;-75
2023/07/02 03:55:09;;;;;;;27.27;8.87;;;15.00;99.90;;;;;;5014892;28;20076;-75
2023/07/02 03:57:35;;;;;;;20.60;8.43;;;15.00;99.90;;;;;;5014752;28;20041;-74
2023/07/02 04:00:01;;;;;;;24.57;7.67;;;15.10;99.90;;;;;;5014636;28;20041;-75
2023/07/02 04:02:26;;;;;;;25.50;8.70;;;15.10;99.90;;;;;;5032474;28;20482;-75
2023/07/02 04:04:52;;;;;;;21.17;8.07;;;15.10;99.90;;;;;;5014565;28;20397;-75
2023/07/02 04:07:18;;;;;;;26.67;9.27;;;15.20;99.90;;;;;;5014687;28;20042;-75
2023/07/02 04:09:43;;;;;;;26.77;8.73;;;15.20;99.90;;;;;;5031998;28;20088;-76
2023/07/02 04:12:09;;;;;;;22.60;9.20;;;15.20;99.90;;;;;;5032374;28;20560;-75
2023/07/02 04:14:35;;;;;;;22.40;8.70;;;15.20;99.90;;;;;;5015159;28;20107;-75
2023/07/02 04:17:03;;;;;;;21.57;7.23;;;15.20;99.90;;;;;;5014099;28;20061;-76
2023/07/02 04:19:29;;;;;;;24.60;7.77;;;15.20;99.90;;;;;;5014849;28;20375;-75
2023/07/02 04:21:54;;;;;;;24.00;7.60;;;15.20;99.90;;;;;;5014477;28;20303;-76
2023/07/02 04:24:20;;;;;;;19.23;6.93;;;15.30;99.90;;;;;;5014457;28;20048;-75
2023/07/02 04:26:46;;;;;;;20.87;7.73;;;15.30;99.90;;;;;;5030544;28;20161;-76
2023/07/02 04:29:11;;;;;;;20.07;7.13;;;15.30;99.90;;;;;;5014529;28;20460;-76
2023/07/02 04:31:37;;;;;;;19.40;6.60;;;15.40;99.90;;;;;;5014819;28;20052;-76
2023/07/02 04:34:05;;;;;;;17.53;7.13;;;15.40;99.90;;;;;;5031800;28;20244;-75
2023/07/02 04:36:31;;;;;;;19.93;6.47;;;15.40;99.90;;;;;;5014641;28;20081;-76
2023/07/02 04:38:57;;;;;;;16.50;6.20;;;15.50;99.90;;;;;;5014410;28;20038;-76
2023/07/02 04:41:23;;;;;;;20.27;6.33;;;15.60;99.90;;;;;;5014537;28;20489;-76
2023/07/02 04:43:48;;;;;;;16.23;6.80;;;15.60;99.90;;;;;;5014632;28;20057;-76
2023/07/02 04:46:14;;;;;;;15.90;5.47;;;15.70;99.90;;;;;;5034707;28;20060;-76
2023/07/02 04:48:40;;;;;;;15.03;6.80;;;15.70;99.90;;;;;;5035688;28;20123;-75
2023/07/02 04:51:06;;;;;;;17.10;6.97;;;15.80;99.90;;;;;;5034081;28;20056;-76
2023/07/02 04:53:31;;;;;;;15.70;5.77;;;15.90;99.90;;;;;;5034555;28;20045;-76
2023/07/02 04:55:58;;;;;;;17.17;6.77;;;15.90;99.90;;;;;;5034039;28;20068;-76
2023/07/02 04:58:23;;;;;;;16.40;6.00;;;16.00;99.90;;;;;;5034454;28;20042;-76
2023/07/02 05:00:49;;;;;;;17.67;5.77;;;16.00;99.90;;;;;;5034139;28;20045;-76
2023/07/02 05:03:15;;;;;;;14.77;7.33;;;16.00;99.90;;;;;;5017855;28;20049;-76
2023/07/02 05:05:40;;;;;;;17.20;6.30;;;16.00;99.90;;;;;;5001674;28;20052;-76
2023/07/02 05:08:06;;;;;;;20.10;6.67;;;15.90;99.90;;;;;;5017376;28;20417;-76
2023/07/02 05:10:32;;;;;;;18.87;6.03;;;15.90;99.90;;;;;;5017719;28;20064;-76
2023/07/02 05:12:58;;;;;;;22.67;8.17;;;16.00;99.90;;;;;;5017623;28;20046;-76
2023/07/02 05:15:24;;;;;;;17.00;6.50;;;16.10;99.90;;;;;;5017599;28;20485;-76
2023/07/02 05:17:49;;;;;;;23.53;6.77;;;16.30;99.90;;;;;;5001285;28;20092;-76
2023/07/02 05:20:15;;;;;;;18.17;6.40;;;16.50;99.90;;;;;;5017552;28;20077;-76
2023/07/02 05:22:41;;;;;;;16.50;6.67;;;16.40;99.90;;;;;;5017770;28;20473;-76
2023/07/02 05:25:07;;;;;;;18.73;6.27;;;16.40;99.90;;;;;;5033399;28;20114;-75
2023/07/02 05:27:33;;;;;;;19.27;7.40;;;16.40;99.90;;;;;;5017490;28;20041;-75
2023/07/02 05:29:58;;;;;;;16.97;6.10;;;16.40;99.90;;;;;;5017203;28;20129;-75
2023/07/02 05:32:24;;;;;;;16.57;6.13;;;16.40;99.90;;;;;;5034254;28;20049;-74
2023/07/02 05:34:50;;;;;;;15.97;6.73;;;16.40;99.90;;;;;;5017397;28;20168;-75
2023/07/02 05:37:16;;;;;;;15.57;5.83;;;16.40;99.90;;;;;;5017180;28;20132;-75
2023/07/02 05:39:42;;;;;;;13.47;6.17;;;16.30;99.90;;;;;;5000882;28;20049;-76
2023/07/02 05:42:07;;;;;;;17.97;6.43;;;16.40;99.90;;;;;;5033562;28;20049;-75
2023/07/02 05:44:33;;;;;;;15.90;5.63;;;16.40;99.90;;;;;;5016847;28;20486;-76
2023/07/02 05:46:59;;;;;;;17.77;6.00;;;16.40;99.90;;;;;;5016965;28;20153;-76
2023/07/02 05:49:26;;;;;;;16.97;5.97;;;16.50;99.90;;;;;;5017448;28;20041;-76
2023/07/02 05:51:52;;;;;;;18.17;6.00;;;16.80;99.90;;;;;;5033577;28;20053;-76
2023/07/02 05:54:18;;;;;;;16.40;6.37;;;17.40;99.90;;;;;;5017049;28;20140;-76
2023/07/02 05:56:43;;;;;;;17.47;6.23;;;18.70;99.90;;;;;;5033617;28;20132;-76
2023/07/02 05:59:09;;;;;;;16.33;6.10;;;20.00;99.90;;;;;;5033175;28;20077;-76
2023/07/02 06:01:36;;;;;;;18.90;6.17;;;21.00;99.90;;;;;;5034422;28;20049;-75
2023/07/02 06:04:02;;;;;;;13.80;6.07;;;21.90;99.90;;;;;;5032996;28;20048;-75
2023/07/02 06:06:27;;;;;;;15.70;5.43;;;22.50;99.90;;;;;;5033122;28;20053;-75
2023/07/02 06:08:53;;;;;;;15.77;6.03;;;22.00;95.00;;;;;;5016630;28;20064;-76
2023/07/02 06:11:19;;;;;;;15.70;5.80;;;21.10;96.40;;;;;;5032797;28;20547;-76
2023/07/02 06:13:44;;;;;;;13.37;6.00;;;20.30;97.60;;;;;;5016601;28;20056;-75
2023/07/02 06:16:10;;;;;;;15.73;6.13;;;19.80;99.90;;;;;;5033589;28;20084;-76
2023/07/02 06:18:36;;;;;;;16.23;6.60;;;20.30;99.90;;;;;;5032813;28;20510;-75
2023/07/02 06:21:02;;;;;;;15.33;5.33;;;21.40;99.90;;;;;;4999927;28;20061;-76
2023/07/02 06:23:30;;;;;;;15.00;6.20;;;22.70;97.70;;;;;;5032510;28;20053;-75
2023/07/02 06:25:58;;;;;;;13.00;5.60;;;23.80;91.60;;;;;;5016467;28;20041;-76
2023/07/02 06:28:26;;;;;;;14.83;5.57;;;24.40;86.10;;;;;;5016374;28;20050;-75
2023/07/02 06:30:52;;;;;;;17.23;5.93;;;25.10;78.80;;;;;;5032648;28;20175;-75
2023/07/02 06:33:17;;;;;;;11.90;5.10;;;25.90;72.50;;;;;;4999705;28;20139;-76
2023/07/02 06:35:43;;;;;;;15.47;5.17;;;26.30;63.50;;;;;;5033700;28;20045;-76
2023/07/02 06:38:09;;;;;;;14.40;5.53;;;26.70;65.10;;;;;;5015645;28;20045;-76
2023/07/02 06:40:34;;;;;;;13.93;4.33;;;26.70;59.20;;;;;;5015935;28;20053;-75
2023/07/02 06:43:00;;;;;;;12.37;4.53;;;26.30;61.30;;;;;;5015729;28;20054;-76
2023/07/02 06:45:26;;;;;;;10.70;4.10;;;25.30;57.00;;;;;;5016151;28;20053;-75
2023/07/02 06:47:51;;;;;;;10.03;3.80;;;25.20;59.00;;;;;;5033456;28;20041;-75
2023/07/02 06:50:17;;;;;;;11.27;4.30;;;25.60;58.30;;;;;;5015757;28;20405;-74
2023/07/02 06:52:43;;;;;;;10.57;3.97;;;26.40;57.50;;;;;;5032047;28;20069;-75
2023/07/02 06:55:09;;;;;;;13.47;3.73;;;27.20;56.60;;;;;;5015768;28;20049;-75
2023/07/02 06:57:34;;;;;;;13.67;4.03;;;27.20;51.60;;;;;;5015820;28;20052;-74
2023/07/02 07:00:00;;;;;;;12.37;4.07;;;27.50;50.90;;;;;;5032010;28;20060;-78
2023/07/02 07:02:27;;;;;;;12.67;4.57;;;27.70;49.50;;;;;;5015301;28;20053;-75
2023/07/02 07:04:53;;;;;;;11.73;4.17;;;27.20;48.20;;;;;;5031975;28;20468;-74
2023/07/02 07:07:19;;;;;;;11.57;3.97;;;26.00;49.90;;;;;;4982215;28;20133;-74
2023/07/02 07:09:45;;;;;;;11.00;4.03;;;24.80;52.00;;;;;;5015607;28;20045;-74
2023/07/02 07:12:10;;;;;;;11.77;4.37;;;23.90;55.10;;;;;;5031451;28;20051;-75
2023/07/02 07:14:36;;;;;;;11.47;4.27;;;23.40;58.70;;;;;;5015158;28;20056;-75
2023/07/02 07:17:02;;;;;;;10.67;3.77;;;23.60;60.40;;;;;;5014893;28;20065;-77
2023/07/02 07:19:28;;;;;;;9.63;4.23;;;24.30;60.30;;;;;;5032493;28;20045;-75
2023/07/02 07:21:54;;;;;;;13.23;4.27;;;24.30;57.10;;;;;;5015190;28;20053;-75
2023/07/02 07:24:19;;;;;;;11.40;3.87;;;24.40;57.70;;;;;;5015021;28;20104;-75
2023/07/02 07:26:45;;;;;;;11.00;3.80;;;25.00;55.60;;;;;;5031601;28;20552;-75
2023/07/02 07:29:11;;;;;;;10.67;4.07;;;25.80;55.50;;;;;;4998569;28;20053;-75
2023/07/02 07:31:37;;;;;;;13.17;4.47;;;26.80;54.10;;;;;;5015204;28;20401;-74
2023/07/02 07:34:03;;;;;;;11.80;4.27;;;27.80;51.50;;;;;;4998878;28;20057;-77
2023/07/02 07:36:28;;;;;;;8.97;3.33;;;28.40;48.00;;;;;;5014954;28;20057;-76
2023/07/02 07:38:54;;;;;;;11.05;3.80;;;28.10;47.50;;;;;;5014810;28;20433;-77
2023/07/02 07:41:20;;;;;;;10.93;3.97;;;27.20;47.60;;;;;;4998671;28;20152;-77
2023/07/02 07:43:45;;;;;;;10.50;3.83;;;26.10;48.00;;;;;;5015382;28;20508;-77
2023/07/02 07:46:11;;;;;;;12.17;4.00;;;24.90;49.20;;;;;;5032307;28;20057;-83
2023/07/02 07:48:37;;;;;;;10.37;4.13;;;24.20;53.20;;;;;;5032948;28;20147;-81
2023/07/02 07:51:02;;;;;;;11.43;4.13;;;23.70;53.60;;;;;;5014738;28;20053;-79
2023/07/02 07:53:28;;;;;;;12.23;4.47;;;24.30;56.80;;;;;;5032708;28;20084;-81
2023/07/02 07:55:54;;;;;;;11.10;4.97;;;25.40;55.00;;;;;;5031848;28;20085;-81
2023/07/02 07:58:20;;;;;;;8.70;3.70;;;26.30;51.90;;;;;;5031023;28;20042;-80
2023/07/02 08:00:45;;;;;;;10.67;4.27;;;26.30;51.70;;;;;;5031227;28;20507;-78
2023/07/02 08:03:11;;;;;;;13.33;4.23;;;26.80;51.00;;;;;;5031123;28;20053;-80
2023/07/02 08:05:37;;;;;;;11.80;4.47;;;26.70;48.60;;;;;;5031265;28;20049;-79
2023/07/02 08:08:03;;;;;;;11.27;4.40;;;26.00;49.40;;;;;;5032549;28;20370;-76
2023/07/02 08:10:29;;;;;;;9.77;3.80;;;25.00;51.00;;;;;;5032146;28;20549;-80
2023/07/02 08:12:54;;;;;;;12.50;4.33;;;24.20;54.40;;;;;;5032444;28;20152;-81
2023/07/02 08:15:22;;;;;;;11.37;4.13;;;24.00;58.70;;;;;;5031839;28;20099;-84
2023/07/02 08:17:47;;;;;;;14.37;5.00;;;24.90;59.00;;;;;;5032240;28;20050;-77
2023/07/02 08:20:13;;;;;;;11.07;4.70;;;25.80;55.30;;;;;;5016666;28;20080;-80
2023/07/02 08:22:39;;;;;;;14.87;4.93;;;26.30;53.80;;;;;;5018911;28;20136;-81
2023/07/02 08:25:08;;;;;;;9.53;4.10;;;25.90;51.80;;;;;;5035385;28;20477;-87
2023/07/02 08:27:34;;;;;;;12.43;4.37;;;25.10;52.80;;;;;;5018378;28;20405;-82
2023/07/02 08:30:00;;;;;;;11.20;3.87;;;25.50;55.90;;;;;;5036202;28;20049;-80
2023/07/02 08:32:26;;;;;;;10.00;4.13;;;26.10;52.40;;;;;;5035471;28;20041;-85
2023/07/02 08:34:55;;;;;;;10.37;3.63;;;26.50;51.00;;;;;;5018793;28;20521;-77
2023/07/02 08:37:21;;;;;;;10.55;4.13;;;26.80;49.70;;;;;;5035761;28;20127;-82
2023/07/02 08:39:48;;;;;;;10.48;4.20;;;26.50;49.90;;;;;;5036142;28;20046;-81
2023/07/02 08:42:14;;;;;;;10.13;4.40;;;25.70;50.30;;;;;;5034448;28;20501;-78
2023/07/02 08:44:41;;;;;;;8.77;3.60;;;24.80;51.80;;;;;;5035902;28;20046;-77
2023/07/02 08:47:07;;;;;;;10.03;4.60;;;24.10;52.70;;;;;;5035926;28;20071;-77
2023/07/02 08:49:33;;;;;;;10.83;3.80;;;23.40;54.80;;;;;;5035459;28;20540;-78
2023/07/02 08:51:58;;;;;;;9.93;3.80;;;22.90;57.30;;;;;;5035909;28;20045;-79
2023/07/02 08:54:24;;;;;;;12.50;4.37;;;22.50;62.70;;;;;;5035666;28;20099;-79
2023/07/02 08:56:50;;;;;;;11.00;4.33;;;22.40;65.40;;;;;;5035841;28;20042;-79
2023/07/02 08:59:15;;;;;;;10.73;3.87;;;22.60;67.40;;;;;;5035377;28;20389;-78
2023/07/02 09:01:59;;;;;;;11.53;4.37;;;22.60;66.90;;;;;;5035565;28;20128;-79
2023/07/02 09:04:26;;;;;;;9.40;3.40;;;22.60;74.60;;;;;;5035267;28;20045;-79
2023/07/02 09:07:03;;;;;;;14.53;3.77;;;22.50;74.00;;;;;;5034412;28;20508;-79
2023/07/02 09:09:29;;;;;;;10.30;3.30;;;22.40;73.60;;;;;;5035191;28;20056;-78
2023/07/02 09:11:55;;;;;;;14.07;3.87;;;22.10;67.00;;;;;;5035345;28;20052;-82
2023/07/02 09:14:28;;;;;;;9.37;3.30;;;21.90;68.00;;;;;;5034732;28;20042;-80
2023/07/02 09:17:11;;;;;;;12.43;4.00;;;21.60;67.80;;;;;;5034353;28;20136;-79
2023/07/02 09:19:48;;;;;;;11.20;4.20;;;21.70;75.10;;;;;;5033963;28;20057;-77
2023/07/02 09:22:15;;;;;;;8.27;3.73;;;21.80;76.50;;;;;;5035328;28;20060;-81
2023/07/02 09:24:41;;;;;;;8.70;3.53;;;22.00;75.10;;;;;;5034827;28;20473;-77
2023/07/02 09:27:07;;;;;;;8.10;3.50;;;22.10;76.80;;;;;;5034748;28;20115;-78
2023/07/02 09:29:33;;;;;;;8.07;3.80;;;22.00;73.30;;;;;;5035023;28;20056;-80
2023/07/02 09:32:02;;;;;;;11.30;3.67;;;21.80;73.50;;;;;;5032657;28;20044;-78
2023/07/02 09:34:29;;;;;;;10.57;3.93;;;21.50;76.30;;;;;;5033795;28;20484;-79
2023/07/02 09:36:56;;;;;;;11.93;4.07;;;21.30;81.80;;;;;;5033836;28;20042;-79
2023/07/02 09:39:27;;;;;;;12.50;5.00;;;21.20;83.70;;;;;;5033567;28;20049;-78
2023/07/02 09:41:56;;;;;;;11.20;4.17;;;21.40;92.10;;;;;;5034727;28;20046;-77
2023/07/02 09:44:25;;;;;;;10.93;3.93;;;21.70;87.90;;;;;;5034719;28;20053;-79
2023/07/02 09:47:02;;;;;;;11.00;4.07;;;21.60;80.80;;;;;;5033753;28;20152;-77
2023/07/02 09:49:41;;;;;;;11.10;4.03;;;21.50;91.40;;;;;;5033657;28;20498;-80
2023/07/02 09:52:11;;;;;;;13.43;4.00;;;21.40;87.40;;;;;;5034514;28;20503;-82
2023/07/02 09:54:37;;;;;;;9.87;4.80;;;21.30;87.30;;;;;;5016507;28;20490;-77
2023/07/02 09:57:04;;;;;;;10.20;4.10;;;21.30;88.90;;;;;;5034053;28;20052;-76
2023/07/02 09:59:30;;;;;;;13.27;4.07;;;21.30;86.70;;;;;;5034025;28;20052;-74
2023/07/02 10:01:57;;;;;;;12.17;3.80;;;21.40;87.90;;;;;;5032716;28;20042;-68
2023/07/02 10:04:23;;;;;;;10.10;4.03;;;21.40;83.10;;;;;;5033931;28;20045;-69
2023/07/02 10:06:51;;;;;;;9.77;3.63;;;21.40;78.80;;;;;;5034062;28;20478;-68
2023/07/02 10:09:33;;;;;;;10.77;3.83;;;21.40;75.30;;;;;;5034092;28;20050;-68
2023/07/02 10:11:59;;;;;;;6.20;3.13;;;21.40;76.60;;;;;;5034239;28;20404;-69
2023/07/02 10:14:25;;;;;;;11.00;3.70;;;21.30;74.70;;;;;;5033955;28;20049;-72
2023/07/02 10:16:55;;;;;;;10.20;3.77;;;21.30;78.80;;;;;;5033641;28;20085;-70
2023/07/02 10:19:21;;;;;;;13.53;4.27;;;21.20;83.60;;;;;;5033987;28;20111;-69
2023/07/02 10:22:00;;;;;;;11.43;4.03;;;21.20;83.60;;;;;;5033804;28;20045;-69
2023/07/02 10:24:26;;;;;;;10.43;4.07;;;21.20;85.10;;;;;;5033673;28;20045;-69
2023/07/02 10:27:02;;;;;;;10.60;3.53;;;21.10;83.00;;;;;;5032751;28;20056;-68
2023/07/02 10:29:29;;;;;;;11.03;4.27;;;21.20;85.80;;;;;;5033546;28;20053;-69
2023/07/02 10:31:56;;;;;;;13.70;5.03;;;21.10;86.30;;;;;;5033718;28;20060;-67
2023/07/02 10:34:29;;;;;;;13.67;4.73;;;21.10;87.90;;;;;;5032603;28;20044;-69
2023/07/02 10:36:55;;;;;;;16.93;5.03;;;21.20;90.10;;;;;;5033733;28;20410;-70
2023/07/02 10:39:21;;;;;;;10.23;3.90;;;21.10;88.20;;;;;;5033553;28;20045;-69
2023/07/02 10:41:46;;;;;;;9.30;3.40;;;21.00;87.00;;;;;;5031923;28;20057;-68
2023/07/02 10:44:12;;;;;;;10.47;3.57;;;21.00;88.10;;;;;;5031743;28;20048;-67
2023/07/02 10:46:48;;;;;;;9.93;3.63;;;20.90;85.60;;;;;;5031928;28;20049;-69
2023/07/02 10:49:20;;;;;;;11.17;3.70;;;20.90;90.70;;;;;;5029497;28;20046;-72
2023/07/02 10:52:00;;;;;;;10.47;3.30;;;20.90;89.60;;;;;;5032413;28;20053;-76
2023/07/02 10:54:25;;;;;;;12.10;3.87;;;21.00;92.10;;;;;;5029291;28;20176;-71
2023/07/02 10:56:57;;;;;;;7.43;3.10;;;21.00;86.50;;;;;;5032350;28;20536;-74
2023/07/02 10:59:26;;;;;;;8.10;3.30;;;21.00;83.90;;;;;;5032932;28;20053;-81
2023/07/02 11:01:51;;;;;;;9.90;3.87;;;20.90;83.80;;;;;;5032615;28;20045;-77
2023/07/02 11:04:17;;;;;;;11.47;3.60;;;20.90;87.80;;;;;;5032990;28;20053;-79
2023/07/02 11:06:43;;;;;;;10.27;3.40;;;20.90;87.20;;;;;;5031558;28;20045;-79
2023/07/02 11:09:20;;;;;;;10.33;3.40;;;20.80;87.40;;;;;;5015670;28;20445;-77
2023/07/02 11:11:54;;;;;;;11.23;3.40;;;20.70;90.00;;;;;;5032669;28;20052;-78
2023/07/02 11:14:46;;;;;;;10.20;3.47;;;20.70;91.20;;;;;;5033311;28;20133;-77
2023/07/02 11:17:12;;;;;;;11.07;3.03;;;20.70;90.80;;;;;;5028060;28;20146;-77
2023/07/02 11:19:38;;;;;;;13.63;3.77;;;20.70;88.70;;;;;;5032484;28;20085;-80
2023/07/02 11:22:04;;;;;;;9.43;3.30;;;20.60;89.90;;;;;;5033283;28;20050;-79
2023/07/02 11:24:34;;;;;;;11.13;3.60;;;20.60;88.10;;;;;;5032986;28;20056;-79
2023/07/02 11:27:02;;;;;;;9.33;3.23;;;20.60;90.30;;;;;;5032865;28;20095;-76
2023/07/02 11:29:32;;;;;;;7.00;3.00;;;20.60;90.90;;;;;;5032870;28;20046;-77
2023/07/02 11:32:11;;;;;;;10.03;3.13;;;20.70;91.90;;;;;;5032753;28;20052;-78
2023/07/02 11:34:38;;;;;;;10.20;3.80;;;20.80;90.60;;;;;;5032546;28;20064;-77
2023/07/02 11:37:05;;;;;;;9.07;3.00;;;20.70;89.70;;;;;;5032922;28;20096;-78
2023/07/02 11:39:31;;;;;;;12.33;3.67;;;20.70;90.40;;;;;;5031610;28;20045;-80
2023/07/02 11:41:57;;;;;;;9.63;3.30;;;20.70;90.60;;;;;;5031421;28;20050;-78
2023/07/02 11:44:23;;;;;;;10.10;2.83;;;20.80;89.60;;;;;;5032692;28;20041;-77
2023/07/02 11:46:49;;;;;;;10.73;3.37;;;20.90;90.30;;;;;;5031874;28;20042;-77
2023/07/02 11:49:15;;;;;;;8.63;2.97;;;20.90;87.40;;;;;;5032864;28;20124;-83
2023/07/02 11:51:47;;;;;;;9.10;3.47;;;20.90;83.80;;;;;;5032373;28;20578;-80
2023/07/02 11:54:13;;;;;;;8.30;3.20;;;21.00;82.90;;;;;;5032156;28;20041;-78
2023/07/02 11:56:41;;;;;;;6.80;3.10;;;20.90;78.60;;;;;;5031944;28;20044;-77
2023/07/02 11:59:07;;;;;;;7.53;3.50;;;20.80;75.60;;;;;;5030903;28;20046;-69
2023/07/02 12:01:33;;;;;;;9.20;3.80;;;20.80;76.90;;;;;;5032012;28;20049;-70
2023/07/02 12:03:59;;;;;;;10.73;3.30;;;20.70;76.50;;;;;;5031733;28;20073;-70
2023/07/02 12:06:25;;;;;;;10.70;3.37;;;20.80;79.50;;;;;;5031865;28;20065;-71
2023/07/02 12:08:51;;;;;;;11.47;3.53;;;20.80;80.10;;;;;;5031792;28;20496;-71
2023/07/02 12:11:17;;;;;;;8.93;3.60;;;20.90;80.70;;;;;;5032382;28;20046;-70
2023/07/02 12:13:43;;;;;;;10.80;3.43;;;21.00;81.60;;;;;;5031678;28;20076;-68
2023/07/02 12:16:08;;;;;;;7.33;3.47;;;21.00;80.00;;;;;;5028839;28;20053;-69
2023/07/02 12:18:34;;;;;;;10.40;3.63;;;21.10;79.40;;;;;;5032049;28;20060;-70
2023/07/02 12:21:00;;;;;;;8.70;3.87;;;21.10;74.10;;;;;;5031531;28;20048;-70
2023/07/02 12:23:25;;;;;;;11.30;4.70;;;21.10;74.70;;;;;;5032295;28;20108;-70
2023/07/02 12:25:51;;;;;;;11.73;4.23;;;21.00;76.00;;;;;;5031919;28;20076;-70
2023/07/02 12:28:17;;;;;;;10.13;4.00;;;20.90;76.40;;;;;;5047389;28;20477;-70
2023/07/02 12:30:43;;;;;;;11.33;4.80;;;20.70;78.80;;;;;;5031823;28;20046;-70
2023/07/02 12:33:08;;;;;;;14.63;4.93;;;20.70;81.20;;;;;;5032266;28;20067;-69
2023/07/02 12:35:34;;;;;;;12.17;4.77;;;20.60;82.20;;;;;;5032092;28;20539;-70